sensor_id;sensor_type;location;lat;lon;timestamp;temperature;humidity
14301;DHT22;7234;59.306;18.024;2023-05-15T17:16:28;20.00;91.60
14301;DHT22;7234;59.306;18.024;2023-05-15T17:18:56;19.80;92.20
14301;DHT22;7234;59.306;18.024;2023-05-15T17:21:27;19.70;92.30
14301;DHT22;7234;59.306;18.024;2023-05-15T17:24:04;19.70;92.60
14301;DHT22;7234;59.306;18.024;2023-05-15T17:26:35;19.70;92.60
14301;DHT22;7234;59.306;18.024;2023-05-15T17:29:03;19.70;92.60
14301;DHT22;7234;59.306;18.024;2023-05-15T17:31:38;19.70;92.70
14301;DHT22;7234;59.306;18.024;2023-05-15T17:34:07;19.70;92.70
14301;DHT22;7234;59.306;18.024;2023-05-15T17:36:37;19.70;92.60
14301;DHT22;7234;59.306;18.024;2023-05-15T17:39:05;19.70;92.70
14301;DHT22;7234;59.306;18.024;2023-05-15T17:41:35;19.70;92.70
14301;DHT22;7234;59.306;18.024;2023-05-15T17:44:02;19.50;92.80
14301;DHT22;7234;59.306;18.024;2023-05-15T17:46:51;19.40;92.90
14301;DHT22;7234;59.306;18.024;2023-05-15T17:49:20;19.30;93.00
14301;DHT22;7234;59.306;18.024;2023-05-15T17:51:49;19.40;92.80
14301;DHT22;7234;59.306;18.024;2023-05-15T17:54:18;19.40;92.80
14301;DHT22;7234;59.306;18.024;2023-05-15T17:56:46;19.40;93.10
14301;DHT22;7234;59.306;18.024;2023-05-15T17:59:13;19.40;92.90
14301;DHT22;7234;59.306;18.024;2023-05-15T18:01:41;19.40;93.10
14301;DHT22;7234;59.306;18.024;2023-05-15T18:04:10;19.20;92.80
14301;DHT22;7234;59.306;18.024;2023-05-15T18:06:37;19.10;93.10
14301;DHT22;7234;59.306;18.024;2023-05-15T18:09:05;19.10;93.10
14301;DHT22;7234;59.306;18.024;2023-05-15T18:11:34;19.00;93.30
14301;DHT22;7234;59.306;18.024;2023-05-15T18:14:01;19.00;93.50
14301;DHT22;7234;59.306;18.024;2023-05-15T18:16:29;18.90;93.50
14301;DHT22;7234;59.306;18.024;2023-05-15T18:18:57;18.90;93.60
14301;DHT22;7234;59.306;18.024;2023-05-15T18:21:26;18.90;93.80
14301;DHT22;7234;59.306;18.024;2023-05-15T18:23:54;18.80;94.30
14301;DHT22;7234;59.306;18.024;2023-05-15T18:26:21;18.80;94.10
14301;DHT22;7234;59.306;18.024;2023-05-15T18:28:49;18.70;94.20
14301;DHT22;7234;59.306;18.024;2023-05-15T18:31:17;18.70;94.50
14301;DHT22;7234;59.306;18.024;2023-05-15T18:33:45;18.60;94.30
14301;DHT22;7234;59.306;18.024;2023-05-15T18:36:13;18.40;94.40
14301;DHT22;7234;59.306;18.024;2023-05-15T18:38:42;18.40;94.70
14301;DHT22;7234;59.306;18.024;2023-05-15T18:41:09;18.30;94.60
14301;DHT22;7234;59.306;18.024;2023-05-15T18:43:39;18.30;94.80
14301;DHT22;7234;59.306;18.024;2023-05-15T18:46:08;18.30;95.00
14301;DHT22;7234;59.306;18.024;2023-05-15T18:48:37;18.30;94.90
14301;DHT22;7234;59.306;18.024;2023-05-15T18:51:08;18.20;94.90
14301;DHT22;7234;59.306;18.024;2023-05-15T18:53:57;18.20;95.00
14301;DHT22;7234;59.306;18.024;2023-05-15T18:56:24;18.20;95.20
14301;DHT22;7234;59.306;18.024;2023-05-15T18:58:53;18.20;95.40
14301;DHT22;7234;59.306;18.024;2023-05-15T19:01:25;18.20;95.80
14301;DHT22;7234;59.306;18.024;2023-05-15T19:03:55;18.20;96.00
14301;DHT22;7234;59.306;18.024;2023-05-15T19:06:27;18.10;96.20
14301;DHT22;7234;59.306;18.024;2023-05-15T19:08:57;18.00;96.40
14301;DHT22;7234;59.306;18.024;2023-05-15T19:11:25;18.00;96.70
14301;DHT22;7234;59.306;18.024;2023-05-15T19:13:55;17.90;96.70
14301;DHT22;7234;59.306;18.024;2023-05-15T19:16:25;17.90;96.90
14301;DHT22;7234;59.306;18.024;2023-05-15T19:18:53;17.90;97.10
14301;DHT22;7234;59.306;18.024;2023-05-15T19:21:20;17.80;97.10
14301;DHT22;7234;59.306;18.024;2023-05-15T19:23:49;17.70;97.00
14301;DHT22;7234;59.306;18.024;2023-05-15T19:26:18;17.70;97.30
14301;DHT22;7234;59.306;18.024;2023-05-15T19:28:49;17.60;97.20
14301;DHT22;7234;59.306;18.024;2023-05-15T19:31:17;17.50;97.40
14301;DHT22;7234;59.306;18.024;2023-05-15T19:33:46;17.50;97.60
14301;DHT22;7234;59.306;18.024;2023-05-15T19:36:18;17.40;97.60
14301;DHT22;7234;59.306;18.024;2023-05-15T19:38:46;17.40;97.90
14301;DHT22;7234;59.306;18.024;2023-05-15T19:41:14;17.30;97.90
14301;DHT22;7234;59.306;18.024;2023-05-15T19:43:45;17.30;98.10
14301;DHT22;7234;59.306;18.024;2023-05-15T19:46:15;17.10;98.40
14301;DHT22;7234;59.306;18.024;2023-05-15T19:48:44;17.10;98.50
14301;DHT22;7234;59.306;18.024;2023-05-15T19:51:13;17.00;98.70
14301;DHT22;7234;59.306;18.024;2023-05-15T19:53:43;17.00;99.10
14301;DHT22;7234;59.306;18.024;2023-05-15T19:56:13;16.90;99.30
14301;DHT22;7234;59.306;18.024;2023-05-15T19:58:42;16.80;99.50
14301;DHT22;7234;59.306;18.024;2023-05-15T20:01:12;16.70;99.70
14301;DHT22;7234;59.306;18.024;2023-05-15T20:03:44;16.70;99.90
14301;DHT22;7234;59.306;18.024;2023-05-15T20:08:44;16.60;99.90
14301;DHT22;7234;59.306;18.024;2023-05-15T20:11:12;16.50;99.90
14301;DHT22;7234;59.306;18.024;2023-05-15T20:13:40;16.50;99.90
14301;DHT22;7234;59.306;18.024;2023-05-15T20:16:13;16.50;99.90
14301;DHT22;7234;59.306;18.024;2023-05-15T20:18:51;16.40;99.90
14301;DHT22;7234;59.306;18.024;2023-05-15T20:21:20;16.40;99.90
14301;DHT22;7234;59.306;18.024;2023-05-15T20:23:48;16.30;99.90
14301;DHT22;7234;59.306;18.024;2023-05-15T20:26:17;16.30;99.90
14301;DHT22;7234;59.306;18.024;2023-05-15T20:28:44;16.30;99.90
14301;DHT22;7234;59.306;18.024;2023-05-15T20:31:13;16.30;99.90
14301;DHT22;7234;59.306;18.024;2023-05-15T20:33:41;16.30;99.90
14301;DHT22;7234;59.306;18.024;2023-05-15T20:36:13;16.30;99.90
14301;DHT22;7234;59.306;18.024;2023-05-15T20:38:44;16.20;99.90
14301;DHT22;7234;59.306;18.024;2023-05-15T20:41:12;16.20;99.90
14301;DHT22;7234;59.306;18.024;2023-05-15T20:43:41;16.20;99.90
14301;DHT22;7234;59.306;18.024;2023-05-15T20:46:22;16.20;99.90
14301;DHT22;7234;59.306;18.024;2023-05-15T20:48:52;16.20;99.90
14301;DHT22;7234;59.306;18.024;2023-05-15T20:51:20;16.10;99.90
14301;DHT22;7234;59.306;18.024;2023-05-15T20:53:54;16.10;99.90
14301;DHT22;7234;59.306;18.024;2023-05-15T20:56:24;16.10;99.90
